Latest Weather Observations for Curtin

IDW60801

Issued at 6:13 am WST Tuesday 17 September 2019 (issued every 10 minutes, with the page automatically refreshed every 10 minutes)

About weather observations | Map of weather stations | Latest weather observations for WA | Other Formats
Station Details ID: 003080 Name: CURTIN AERO Lat: -17.58 Lon: 123.83 Height: 77.5 m
Data from the previous 72 hours. | See also: Recent months at Curtin
Date/Time
WST
Temp
°C
App
Temp
°C
Dew
Point
°C
Rel
Hum
%
Delta-T
°C
Wind Press
QNH
hPa
Press
MSL
hPa
Rain since
9am
mm
Dir  Spd
km/h
Gust
km/h
Spd
kts
Gust
kts
17/06:00am 18.2 18.9 17.0 93 0.7 NE 9 11 5 6 1015.1 1014.6 0.0
17/05:30am 17.9 18.6 17.1 95 0.5 NE 9 15 5 8 1014.8 1014.3 0.0
17/05:12am 17.2 17.1 15.9 92 0.8 NE 11 13 6 7 1014.5 1014.1 0.0
17/05:00am 17.5 17.3 15.7 89 1.1 NE 11 15 6 8 1014.3 1013.9 0.0
17/04:30am 17.1 16.0 13.2 78 2.2 NE 11 13 6 7 1014.0 1013.6 0.0
17/04:00am 16.9 14.3 6.1 49 5.3 NE 9 13 5 7 1013.7 1013.3 0.0
17/03:30am 17.7 14.2 5.3 44 6.0 NE 13 15 7 8 1013.6 1013.2 0.0
17/03:00am 17.1 14.3 5.1 45 5.8 NE 9 11 5 6 1013.1 1012.7 0.0
17/02:30am 18.3 15.9 4.5 40 6.6 N 6 7 3 4 1012.8 1012.4 0.0
17/02:00am 20.4 17.3 5.6 38 7.4 NW 11 15 6 8 1012.6 1012.2 0.0
17/01:30am 20.1 16.5 5.0 37 7.4 NNW 13 19 7 10 1012.8 1012.4 0.0
17/01:00am 19.9 16.5 4.0 35 7.6 N 11 15 6 8 1012.8 1012.4 0.0
17/12:30am 20.7 17.8 2.5 30 8.5 WSW 7 11 4 6 1012.8 1012.4 0.0
17/12:00am 22.7 19.5 2.8 27 9.5 WSW 9 13 5 7 1012.9 1012.5 0.0
 
Date/Time
WST
Temp
°C
App
Temp
°C
Dew
Point
°C
Rel
Hum
%
Delta-T
°C
Wind Press
QNH
hPa
Press
MSL
hPa
Rain since
9am
mm
Dir  Spd
km/h
Gust
km/h
Spd
kts
Gust
kts
16/11:30pm 24.5 19.6 2.0 23 10.7 SSW 17 20 9 11 1013.2 1012.8 0.0
16/11:00pm 24.2 19.6 3.5 26 10.1 SW 17 20 9 11 1013.3 1012.9 0.0
16/10:30pm 24.3 20.1 3.6 26 10.2 SW 15 19 8 10 1013.5 1013.1 0.0
16/10:00pm 24.6 20.2 2.7 24 10.6 SW 15 19 8 10 1013.6 1013.2 0.0
16/09:30pm 25.4 20.6 2.8 23 11.0 SW 17 19 9 10 1013.6 1013.2 0.0
16/09:00pm 26.6 21.5 3.2 22 11.6 SW 19 22 10 12 1013.6 1013.2 0.0
16/08:30pm 25.9 21.6 3.2 23 11.2 SW 15 19 8 10 1013.7 1013.3 0.0
16/08:00pm 26.9 23.1 4.0 23 11.5 W 13 19 7 10 1013.5 1013.1 0.0
16/07:30pm 23.2 20.6 0.9 23 10.3 NNW 4 6 2 3 1012.8 1012.4 0.0
16/07:00pm 24.5 21.2 0.1 20 11.2 NNW 7 7 4 4 1012.5 1012.1 0.0
16/06:30pm 28.1 24.8 -0.1 16 13.3 N 7 11 4 6 1012.1 1011.7 0.0
16/06:00pm 30.6 27.3 0.1 14 14.7 NW 7 11 4 6 1011.5 1011.1 0.0
16/05:30pm 32.5 28.4 -0.5 12 15.9 NW 11 15 6 8 1011.3 1010.9 0.0
16/05:00pm 34.1 29.2 -0.5 11 16.9 WNW 15 20 8 11 1011.1 1010.7 0.0
16/04:30pm 34.7 29.1 -0.1 11 17.2 NW 19 30 10 16 1010.9 1010.5 0.0
16/04:00pm 35.4 30.3 0.5 11 17.5 NW 17 24 9 13 1010.8 1010.4 0.0
16/03:30pm 35.8 31.8 -2.0 9 18.2 ENE 9 17 5 9 1010.7 1010.3 0.0
16/03:00pm 35.9 31.6 -1.9 9 18.3 NE 11 19 6 10 1010.8 1010.4 0.0
16/02:30pm 35.7 30.8 -0.6 10 17.9 NE 15 22 8 12 1011.0 1010.6 0.0
16/02:00pm 35.8 31.5 -2.0 9 18.2 W 11 20 6 11 1011.3 1010.9 0.0
16/01:30pm 36.1 30.7 -1.7 9 18.3 E 17 28 9 15 1011.6 1011.2 0.0
16/01:00pm 35.1 31.1 -2.5 9 17.9 SSE 9 19 5 10 1012.0 1011.6 0.0
16/12:30pm 35.2 31.4 -1.0 10 17.7 NE 9 13 5 7 1012.5 1012.1 0.0
16/12:00pm 35.2 31.9 0.3 11 17.4 S 7 13 4 7 1013.0 1012.6 0.0
16/11:30am 34.2 29.7 -0.4 11 16.9 W 13 19 7 10 1013.6 1013.2 0.0
16/11:00am 33.4 29.7 0.1 12 16.3 NW 9 17 5 9 1014.1 1013.7 0.0
16/10:30am 33.2 29.7 1.1 13 16.0 WNW 9 13 5 7 1014.8 1014.3 0.0
16/10:00am 32.0 28.4 3.1 16 14.8 WNW 11 17 6 9 1015.1 1014.6 0.0
16/09:30am 31.5 27.6 3.5 17 14.4 WNW 13 19 7 10 1015.5 1015.0 0.0
16/09:00am 30.6 27.9 5.8 21 13.2 W 9 13 5 7 1015.8 1015.3 0.0
16/08:30am 29.1 26.9 7.7 26 11.6 WNW 9 13 5 7 1015.8 1015.3 0.0
16/08:00am 27.0 25.7 11.1 37 9.0 N 9 11 5 6 1015.9 1015.4 0.0
16/07:30am 24.3 23.6 13.2 50 6.5 NNW 9 13 5 7 1015.8 1015.3 0.0
16/07:00am 21.4 21.4 14.1 63 4.3 N 7 11 4 6 1015.6 1015.1 0.0
16/06:30am 19.4 19.1 14.4 73 2.9 NNW 9 13 5 7 1015.2 1014.7 0.0
16/06:00am 16.6 14.7 10.5 67 3.2 N 11 11 6 6 1015.0 1014.5 0.0
16/05:30am 16.7 14.5 9.4 62 3.8 N 11 13 6 7 1014.5 1014.1 0.0
16/05:00am 13.9 11.0 6.3 60 3.7 N 11 11 6 6 1014.7 1014.2 0.0
16/04:30am 14.4 12.1 5.5 55 4.2 N 7 9 4 5 1014.7 1014.2 0.0
16/04:00am 14.1 11.6 4.7 53 4.4 N 7 9 4 5 1014.2 1013.8 0.0
16/03:30am 17.2 14.8 7.0 51 5.1 N 9 11 5 6 1013.9 1013.5 0.0
16/03:00am 17.5 14.5 6.1 47 5.6 N 11 13 6 7 1013.7 1013.3 0.0
16/02:30am 18.0 15.0 5.9 45 5.9 NNW 11 13 6 7 1013.5 1013.1 0.0
16/02:00am 18.9 16.4 6.4 44 6.2 WNW 9 13 5 7 1013.5 1013.1 0.0
16/01:30am 17.5 14.2 4.8 43 6.1 NW 11 13 6 7 1013.4 1013.0 0.0
16/01:00am 16.2 13.4 2.2 39 6.3 NW 6 7 3 4 1013.6 1013.2 0.0
16/12:30am 18.8 15.6 3.0 35 7.4 NNW 9 13 5 7 1013.7 1013.3 0.0
16/12:00am 18.9 15.2 2.3 33 7.6 NNW 11 15 6 8 1013.6 1013.2 0.0
 
Date/Time
WST
Temp
°C
App
Temp
°C
Dew
Point
°C
Rel
Hum
%
Delta-T
°C
Wind Press
QNH
hPa
Press
MSL
hPa
Rain since
9am
mm
Dir  Spd
km/h
Gust
km/h
Spd
kts
Gust
kts
15/11:30pm 21.1 17.8 2.4 29 8.8 SSW 9 11 5 6 1013.4 1013.0 0.0
15/11:00pm 22.9 19.2 2.4 26 9.7 SSW 11 15 6 8 1013.5 1013.1 0.0
15/10:30pm 23.3 19.4 3.3 27 9.7 SSW 13 15 7 8 1013.4 1013.0 0.0
15/10:00pm 24.5 19.8 3.2 25 10.4 SSW 17 20 9 11 1013.3 1012.9 0.0
15/09:30pm 25.0 20.7 3.0 24 10.7 SW 15 19 8 10 1013.4 1013.0 0.0
15/09:00pm 25.4 20.4 3.4 24 10.8 WSW 19 20 10 11 1013.3 1012.9 0.0
15/08:30pm 23.9 20.6 2.7 25 10.2 WSW 9 11 5 6 1013.3 1012.9 0.0
15/08:00pm 22.2 20.0 1.3 25 9.7 NW 2 7 1 4 1013.2 1012.8 0.0
15/07:30pm 22.2 18.8 -0.5 22 10.1 NW 7 9 4 5 1012.9 1012.5 0.0
15/07:00pm 25.2 21.9 0.0 19 11.7 NW 7 9 4 5 1012.7 1012.3 0.0
15/06:30pm 27.9 24.2 -0.2 16 13.2 WNW 9 11 5 6 1012.5 1012.1 0.0
15/06:00pm 28.2 24.7 -2.8 13 14.0 S 6 11 3 6 1012.3 1011.9 0.0
15/05:59pm 28.3 24.8 -2.7 13 14.0 ESE 6 11 3 6 1012.2 1011.8 0.0
15/05:30pm 33.3 29.1 -3.8 9 17.1 E 9 13 5 7 1011.9 1011.5 0.0
15/05:00pm 34.7 30.4 -4.4 8 18.0 NE 9 15 5 8 1011.7 1011.3 0.0
15/04:30pm 35.5 32.3 -3.8 8 18.4 NE 4 17 2 9 1011.7 1011.3 0.0
15/04:00pm 35.5 31.3 -3.8 8 18.4 NNE 9 20 5 11 1011.7 1011.3 0.0
15/03:30pm 35.5 30.6 -3.8 8 18.4 ENE 13 19 7 10 1011.8 1011.4 0.0
15/03:00pm 35.8 29.7 -3.5 8 18.5 ENE 19 30 10 16 1011.9 1011.5 0.0
15/02:30pm 35.9 30.6 -3.5 8 18.6 E 15 26 8 14 1012.0 1011.6 0.0
15/02:00pm 35.6 29.5 -3.7 8 18.4 E 19 28 10 15 1012.2 1011.8 0.0
15/01:30pm 35.2 30.2 -4.0 8 18.2 E 13 24 7 13 1012.5 1012.1 0.0
15/01:00pm 35.4 29.3 -3.8 8 18.3 ESE 19 26 10 14 1013.0 1012.6 0.0
15/12:30pm 35.0 29.3 -4.1 8 18.1 E 17 28 9 15 1013.4 1013.0 0.0
15/12:00pm 34.6 28.3 -4.4 8 17.9 ENE 20 35 11 19 1013.8 1013.4 0.0
15/11:30am 35.4 29.5 -2.3 9 18.0 ESE 19 35 10 19 1014.2 1013.8 0.0
15/11:00am 34.4 27.5 -3.0 9 17.6 ENE 24 35 13 19 1014.5 1014.1 0.0
15/10:30am 34.5 29.7 -2.9 9 17.6 SE 13 20 7 11 1015.1 1014.6 0.0
15/10:00am 32.9 28.5 -2.7 10 16.6 WNW 11 15 6 8 1015.7 1015.2 0.0
15/09:30am 31.7 27.5 -3.6 10 16.1 W 9 15 5 8 1016.1 1015.6 0.0
15/09:00am 30.5 26.4 -3.3 11 15.3 WSW 9 17 5 9 1016.4 1015.9 0.0
15/08:30am 28.5 24.5 -2.6 13 14.1 WSW 9 13 5 7 1016.6 1016.1 0.0
15/08:00am 26.9 22.8 -2.8 14 13.2 WSW 9 13 5 7 1016.6 1016.1 0.0
15/07:30am 25.1 21.4 -0.1 19 11.6 WSW 9 11 5 6 1016.6 1016.1 0.0
15/07:00am 22.8 19.8 1.8 25 9.8 WSW 7 9 4 5 1016.4 1015.9 0.0
15/06:30am 19.9 18.7 4.8 37 7.4 CALM 0 6 0 3 1016.1 1015.6 0.0
15/06:00am 17.4 14.3 3.7 40 6.4 SW 9 11 5 6 1015.4 1014.9 0.0
15/05:30am 16.8 13.7 3.5 41 6.2 SW 9 15 5 8 1015.1 1014.6 0.0
15/05:00am 18.0 15.3 3.9 39 6.6 SW 7 9 4 5 1015.0 1014.5 0.0
15/04:30am 17.4 14.8 4.0 41 6.3 WSW 7 11 4 6 1014.9 1014.4 0.0
15/04:00am 17.2 14.7 4.5 43 6.0 W 7 9 4 5 1014.7 1014.2 0.0
15/03:30am 18.7 15.4 4.8 40 6.7 WNW 11 15 6 8 1014.3 1013.9 0.0
15/03:00am 18.7 15.6 5.5 42 6.5 WNW 11 15 6 8 1014.2 1013.8 0.0
15/02:30am 18.5 15.4 5.4 42 6.4 WNW 11 15 6 8 1014.2 1013.8 0.0
15/02:00am 18.2 14.9 4.7 41 6.5 NW 11 13 6 7 1014.3 1013.9 0.0
15/01:30am 18.6 14.9 4.4 39 6.8 WNW 13 15 7 8 1014.4 1014.0 0.0
15/01:00am 18.0 14.3 2.3 35 7.2 WNW 11 15 6 8 1014.7 1014.2 0.0
15/12:30am 17.6 14.0 0.7 32 7.4 WNW 9 11 5 6 1015.0 1014.5 0.0
15/12:00am 17.1 13.6 -1.5 28 7.8 W 7 9 4 5 1015.0 1014.5 0.0
 
Date/Time
WST
Temp
°C
App
Temp
°C
Dew
Point
°C
Rel
Hum
%
Delta-T
°C
Wind Press
QNH
hPa
Press
MSL
hPa
Rain since
9am
mm
Dir  Spd
km/h
Gust
km/h
Spd
kts
Gust
kts
14/11:30pm 19.5 17.4 -0.5 26 8.7 CALM 0 4 0 2 1015.0 1014.5 0.0
14/11:00pm 21.2 17.5 -0.1 24 9.5 WSW 9 11 5 6 1015.1 1014.6 0.0
14/10:30pm 22.3 18.0 0.8 24 9.9 SSW 13 17 7 9 1015.0 1014.5 0.0
14/10:00pm 22.5 18.5 0.4 23 10.1 SSW 11 15 6 8 1015.0 1014.5 0.0
14/09:30pm 23.9 18.7 0.3 21 10.9 SW 17 20 9 11 1015.0 1014.5 0.0
14/09:00pm 24.8 18.9 -1.1 18 11.7 SW 20 22 11 12 1015.1 1014.6 0.0
14/08:30pm 25.4 20.2 0.1 19 11.7 W 17 22 9 12 1014.7 1014.2 0.0
14/08:00pm 26.0 22.8 0.6 19 11.9 SW 7 9 4 5 1014.7 1014.2 0.0
14/07:30pm 25.3 22.1 0.8 20 11.5 WSW 7 7 4 4 1014.3 1013.9 0.0
14/07:00pm 25.8 22.5 -1.1 17 12.2 WNW 6 7 3 4 1014.0 1013.6 0.0
14/06:30pm 26.0 22.3 -2.6 15 12.7 NW 7 11 4 6 1013.8 1013.4 0.0
14/06:00pm 29.7 26.2 -1.6 13 14.5 NW 7 9 4 5 1013.6 1013.2 0.0
14/05:30pm 32.6 29.8 -2.9 10 16.5 NNW 2 9 1 5 1013.2 1012.8 0.0
14/05:00pm 34.4 30.0 -6.3 7 18.1 ESE 9 15 5 8 1012.9 1012.5 0.0
14/04:30pm 35.2 31.2 -7.7 6 18.8 E 6 19 3 10 1012.8 1012.4 0.0
14/04:00pm 35.3 30.0 -7.7 6 18.8 NNE 13 26 7 14 1012.7 1012.3 0.0
14/03:30pm 35.5 30.8 -5.5 7 18.6 S 11 19 6 10 1012.8 1012.4 0.0
14/03:00pm 35.3 30.3 -7.7 6 18.8 NNE 11 20 6 11 1013.0 1012.6 0.0
14/02:30pm 35.2 30.8 -5.7 7 18.5 NW 9 15 5 8 1013.1 1012.7 0.0
14/02:00pm 35.6 29.7 -5.5 7 18.7 SSE 17 26 9 14 1013.4 1013.0 0.0
14/01:30pm 34.5 29.3 -6.3 7 18.2 NNE 13 22 7 12 1013.7 1013.3 0.0
14/01:00pm 33.9 27.7 -4.9 8 17.6 ESE 19 33 10 18 1014.2 1013.8 0.0
14/12:30pm 34.0 28.6 -4.9 8 17.7 ESE 15 26 8 14 1015.1 1014.6 0.0
14/12:00pm 33.4 27.7 -3.7 9 17.1 E 17 26 9 14 1015.9 1015.4 0.0
14/11:30am 33.3 26.9 -5.4 8 17.3 ESE 20 32 11 17 1016.3 1015.8 0.0
14/11:00am 33.4 27.3 -3.7 9 17.1 ENE 19 32 10 17 1016.8 1016.3 0.0
14/10:30am 33.0 26.7 -4.0 9 16.9 ENE 20 30 11 16 1017.4 1016.9 0.0
14/10:00am 32.4 26.0 -4.5 9 16.6 ENE 20 28 11 15 1017.7 1017.2 0.0
14/09:30am 31.5 24.8 -3.8 10 16.0 NE 22 33 12 18 1018.2 1017.7 0.0
14/09:00am 30.7 24.7 -3.1 11 15.4 NE 19 35 10 19 1018.2 1017.7 0.0
14/08:30am 28.9 25.6 4.4 21 12.6 ENE 11 17 6 9 1018.1 1017.6 0.0
14/08:00am 25.2 22.9 7.3 32 9.4 ENE 9 13 5 7 1018.2 1017.7 0.0
14/07:30am 22.5 19.9 7.9 39 7.7 NE 11 19 6 10 1018.1 1017.6 0.0
14/07:00am 20.3 17.5 7.0 42 6.8 NE 11 15 6 8 1017.7 1017.2 0.0
14/06:30am 16.4 12.5 1.3 36 6.7 NE 11 13 6 7 1017.3 1016.8 0.0

Other formats

Comma delimited format used in spreadsheet applications
http://www.bom.gov.au/fwo/IDW60801/IDW60801.94204.axf

JavaScript Object Notation format (JSON) in row-major order
http://www.bom.gov.au/fwo/IDW60801/IDW60801.94204.json

Data quality

Most of these data are generated automatically and are frequently updated. Quality checks on data are not normally performed. It is possible for incorrect values to appear. Refer to information at About Latest Weather Observations and please check the disclaimer before using these data.